createdAt,value
2019-04-11T00:02:12.627Z,37.40
2019-04-11T00:04:41.989Z,37.50
2019-04-11T00:07:10.760Z,37.60
2019-04-11T00:09:39.057Z,37.20
2019-04-11T00:12:08.393Z,37.30
2019-04-11T00:14:37.956Z,37.30
2019-04-11T00:17:06.371Z,37.20
2019-04-11T00:19:35.706Z,37.20
2019-04-11T00:22:05.580Z,37.30
2019-04-11T00:24:34.580Z,38.20
2019-04-11T00:27:02.978Z,37.50
2019-04-11T00:29:31.350Z,37.40
2019-04-11T00:32:01.101Z,37.30
2019-04-11T00:34:30.964Z,37.60
2019-04-11T00:37:00.790Z,37.70
2019-04-11T00:39:29.922Z,37.70
2019-04-11T00:42:00.020Z,37.50
2019-04-11T00:44:28.346Z,37.50
2019-04-11T00:46:56.716Z,37.60
2019-04-11T00:49:26.213Z,37.40
2019-04-11T00:51:54.546Z,37.30
2019-04-11T00:54:22.861Z,37.30
2019-04-11T00:56:51.146Z,37.50
2019-04-11T00:59:20.381Z,37.50
2019-04-11T01:01:50.036Z,37.20
2019-04-11T01:04:20.007Z,37.30
2019-04-11T01:06:48.395Z,37.10
2019-04-11T01:09:17.976Z,37.10
2019-04-11T01:11:46.394Z,37.90
2019-04-11T01:14:15.333Z,37.20
2019-04-11T01:16:50.900Z,37.40
2019-04-11T01:19:19.473Z,37.20
2019-04-11T01:21:48.765Z,37.30
2019-04-11T01:24:17.771Z,37.20
2019-04-11T01:26:46.208Z,37.20
2019-04-11T01:29:15.401Z,37.90
2019-04-11T01:31:46.221Z,37.40
2019-04-11T01:34:14.594Z,37.20
2019-04-11T01:36:42.998Z,37.10
2019-04-11T01:39:13.335Z,37.70
2019-04-11T01:41:42.625Z,37.10
2019-04-11T01:44:10.987Z,37.10
2019-04-11T01:46:40.265Z,37.90
2019-04-11T01:49:16.357Z,37.10
2019-04-11T01:51:45.568Z,37.00
2019-04-11T01:54:14.038Z,37.00
2019-04-11T01:56:42.320Z,37.00
2019-04-11T01:59:11.105Z,36.90
2019-04-11T02:01:41.164Z,36.70
2019-04-11T02:04:11.940Z,37.10
2019-04-11T02:06:40.556Z,36.20
2019-04-11T02:09:11.819Z,36.60
2019-04-11T02:11:41.446Z,36.80
2019-04-11T02:14:15.593Z,36.80
2019-04-11T02:16:41.059Z,36.60
2019-04-11T02:19:10.166Z,36.80
2019-04-11T02:21:39.945Z,37.00
2019-04-11T02:24:28.410Z,36.60
2019-04-11T02:27:01.135Z,36.50
2019-04-11T02:29:29.824Z,36.50
2019-04-11T02:32:01.261Z,36.50
2019-04-11T02:34:29.549Z,36.60
2019-04-11T02:37:00.011Z,36.50
2019-04-11T02:39:30.759Z,36.60
2019-04-11T02:41:59.139Z,36.40
2019-04-11T02:44:39.486Z,36.60
2019-04-11T02:47:05.181Z,36.60
2019-04-11T02:49:28.229Z,36.40
2019-04-11T02:51:56.534Z,36.50
2019-04-11T02:54:26.510Z,36.50
2019-04-11T02:56:55.071Z,36.60
2019-04-11T02:59:25.172Z,37.30
2019-04-11T03:01:53.777Z,36.40
2019-04-11T03:04:24.000Z,36.30
2019-04-11T03:06:52.200Z,36.60
2019-04-11T03:09:22.036Z,36.50
2019-04-11T03:11:51.523Z,36.50
2019-04-11T03:14:20.740Z,36.40
2019-04-11T03:16:57.325Z,36.50
2019-04-11T03:19:35.793Z,36.60
2019-04-11T03:21:50.043Z,37.30
2019-04-11T03:24:19.034Z,36.60
2019-04-11T03:26:47.423Z,36.40
2019-04-11T03:29:15.750Z,36.60
2019-04-11T03:32:32.096Z,36.40
2019-04-11T03:37:27.208Z,36.50
2019-04-11T03:39:39.508Z,36.40
2019-04-11T03:41:59.348Z,36.40
2019-04-11T03:44:23.425Z,36.40
2019-04-11T03:47:01.754Z,36.50
2019-04-11T03:49:27.880Z,36.30
2019-04-11T03:51:47.901Z,36.30
2019-04-11T03:54:17.778Z,36.00
2019-04-11T03:56:46.051Z,36.00
2019-04-11T03:59:16.595Z,36.50
2019-04-11T04:01:46.576Z,36.80
2019-04-11T04:04:15.439Z,36.60
2019-04-11T04:06:45.881Z,36.50
2019-04-11T04:09:17.075Z,36.40
2019-04-11T04:11:49.143Z,36.40
2019-04-11T04:14:26.238Z,36.40
2019-04-11T04:17:03.685Z,36.60
2019-04-11T04:19:40.283Z,36.70
2019-04-11T04:22:10.990Z,36.80
2019-04-11T04:24:40.682Z,36.40
2019-04-11T04:27:10.273Z,36.40
2019-04-11T04:29:38.827Z,36.50
2019-04-11T04:32:08.232Z,36.80
2019-04-11T04:34:37.315Z,37.30
2019-04-11T04:37:07.667Z,36.80
2019-04-11T04:39:39.818Z,36.90
2019-04-11T04:42:17.359Z,37.20
2019-04-11T04:44:40.392Z,37.20
2019-04-11T04:47:19.435Z,37.30
2019-04-11T04:49:40.845Z,37.50
2019-04-11T04:52:11.484Z,37.50
2019-04-11T04:54:40.845Z,37.40
2019-04-11T04:57:12.918Z,37.30
2019-04-11T04:59:40.908Z,37.30
2019-04-11T05:02:10.991Z,37.30
2019-04-11T05:04:40.327Z,37.40
2019-04-11T05:07:09.617Z,37.50
2019-04-11T05:09:38.486Z,37.60
2019-04-11T05:12:06.891Z,37.90
2019-04-11T05:14:35.204Z,38.30
2019-04-11T05:17:03.903Z,38.30
2019-04-11T05:19:32.266Z,38.50
2019-04-11T05:22:01.848Z,38.80
2019-04-11T05:24:30.808Z,38.80
2019-04-11T05:26:59.871Z,38.70
2019-04-11T05:29:29.244Z,38.70
2019-04-11T05:31:58.853Z,38.70
2019-04-11T05:34:27.999Z,38.70
2019-04-11T05:36:57.608Z,38.80
2019-04-11T05:39:27.541Z,38.90
2019-04-11T05:41:56.731Z,39.10
2019-04-11T05:44:25.193Z,38.90
2019-04-11T05:46:58.496Z,39.00
2019-04-11T05:49:36.154Z,39.10
2019-04-11T05:52:06.244Z,39.20
2019-04-11T05:54:38.717Z,39.20
2019-04-11T05:57:07.025Z,39.40
2019-04-11T05:59:37.004Z,40.20
2019-04-11T06:02:17.082Z,39.40
2019-04-11T06:05:03.563Z,39.70
2019-04-11T06:07:42.150Z,39.70
2019-04-11T06:10:20.352Z,39.60
2019-04-11T06:13:06.461Z,40.50
2019-04-11T06:15:51.806Z,39.80
2019-04-11T06:18:33.133Z,39.90
2019-04-11T06:21:15.779Z,40.00
2019-04-11T06:23:49.873Z,40.00
2019-04-11T06:26:26.907Z,40.00
2019-04-11T06:28:57.046Z,40.50
2019-04-11T06:31:43.722Z,40.20
2019-04-11T06:34:12.028Z,40.20
2019-04-11T06:36:48.243Z,40.20
2019-04-11T06:39:21.640Z,40.20
2019-04-11T06:41:54.905Z,40.30
2019-04-11T06:44:30.709Z,40.30
2019-04-11T06:47:02.220Z,40.20
2019-04-11T06:49:49.384Z,40.20
2019-04-11T06:52:18.894Z,40.20
2019-04-11T06:54:58.189Z,40.30
2019-04-11T06:57:30.001Z,40.20
2019-04-11T07:00:00.877Z,40.30
2019-04-11T07:02:32.061Z,40.20
2019-04-11T07:05:02.589Z,40.40
2019-04-11T07:07:34.224Z,40.40
2019-04-11T07:10:04.223Z,40.30
2019-04-11T07:12:43.191Z,40.30
2019-04-11T07:15:14.454Z,40.70
2019-04-11T07:18:01.157Z,40.60
2019-04-11T07:20:33.781Z,40.60
2019-04-11T07:23:20.329Z,40.70
2019-04-11T07:25:53.924Z,40.80
2019-04-11T07:28:43.692Z,40.90
2019-04-11T07:31:21.343Z,40.90
2019-04-11T07:33:54.362Z,41.10
2019-04-11T07:36:40.691Z,41.00
2019-04-11T07:39:10.649Z,41.20
2019-04-11T07:41:41.694Z,40.90
2019-04-11T07:44:27.440Z,41.00
2019-04-11T07:47:17.091Z,41.10
2019-04-11T07:49:40.874Z,41.10
2019-04-11T07:52:11.311Z,41.30
2019-04-11T07:54:40.986Z,41.70
2019-04-11T07:57:14.920Z,41.20
2019-04-11T08:00:03.627Z,41.30
2019-04-11T08:02:50.181Z,41.40
2019-04-11T08:05:32.412Z,41.60
2019-04-11T08:08:09.474Z,41.60
2019-04-11T08:10:39.585Z,41.40
2019-04-11T08:13:10.195Z,41.50
2019-04-11T08:15:56.480Z,41.30
2019-04-11T08:18:29.508Z,41.20
2019-04-11T08:21:05.938Z,41.20
2019-04-11T08:23:34.312Z,41.30
2019-04-11T08:26:22.064Z,41.40
2019-04-11T08:29:01.455Z,41.50
2019-04-11T08:31:22.341Z,41.40
2019-04-11T08:33:53.097Z,41.60
2019-04-11T08:36:26.116Z,41.50
2019-04-11T08:38:54.486Z,41.40
2019-04-11T08:41:43.852Z,41.40
2019-04-11T08:44:13.104Z,41.30
2019-04-11T08:46:43.224Z,41.40
2019-04-11T08:49:31.621Z,41.30
2019-04-11T08:52:01.599Z,41.20
2019-04-11T08:54:33.971Z,41.30
2019-04-11T08:57:03.364Z,41.30
2019-04-11T08:59:39.772Z,41.30
2019-04-11T09:02:08.804Z,41.30
2019-04-11T09:04:48.234Z,41.30
2019-04-11T09:07:31.653Z,41.40
2019-04-11T09:10:04.722Z,41.40
2019-04-11T09:12:34.233Z,41.40
2019-04-11T09:15:21.127Z,41.50
2019-04-11T09:17:58.659Z,41.50
2019-04-11T09:20:40.149Z,41.30
2019-04-11T09:23:09.335Z,41.20
2019-04-11T09:25:51.348Z,41.40
2019-04-11T09:28:19.930Z,41.20
2019-04-11T09:30:52.877Z,41.10
2019-04-11T09:33:26.146Z,41.00
2019-04-11T09:35:56.098Z,41.10
2019-04-11T09:38:28.938Z,41.20
2019-04-11T09:41:00.426Z,41.30
2019-04-11T09:43:42.758Z,41.30
2019-04-11T09:46:12.681Z,41.40
2019-04-11T09:48:51.666Z,41.40
2019-04-11T09:51:38.036Z,42.10
2019-04-11T09:54:17.684Z,41.40
2019-04-11T09:56:51.665Z,41.40
2019-04-11T09:59:22.907Z,41.30
2019-04-11T10:02:10.115Z,41.00
2019-04-11T10:04:41.569Z,41.20
2019-04-11T10:07:17.779Z,41.30
2019-04-11T10:10:00.186Z,41.30
2019-04-11T10:12:40.511Z,41.40
2019-04-11T10:15:09.420Z,41.30
2019-04-11T10:17:56.867Z,41.20
2019-04-11T10:20:26.638Z,41.00
2019-04-11T10:23:01.544Z,40.80
2019-04-11T10:25:32.285Z,41.00
2019-04-11T10:28:04.822Z,41.10
2019-04-11T10:30:51.381Z,41.20
2019-04-11T10:33:22.542Z,41.30
2019-04-11T10:35:59.140Z,41.80
2019-04-11T10:38:28.748Z,40.90
2019-04-11T10:41:00.771Z,40.90
2019-04-11T10:43:32.077Z,40.70
2019-04-11T10:46:11.263Z,40.70
2019-04-11T10:51:42.308Z,40.60
2019-04-11T10:54:13.451Z,40.80
2019-04-11T10:56:43.603Z,40.60
2019-04-11T10:59:13.627Z,40.80
2019-04-11T11:01:58.614Z,40.90
2019-04-11T11:04:28.831Z,40.90
2019-04-11T11:06:58.740Z,40.90
2019-04-11T11:09:36.804Z,40.90
2019-04-11T11:12:25.388Z,40.90
2019-04-11T11:14:55.828Z,40.90
2019-04-11T11:17:47.030Z,40.90
2019-04-11T11:20:26.063Z,41.00
2019-04-11T11:22:57.255Z,40.90
2019-04-11T11:25:33.095Z,40.90
2019-04-11T11:28:03.171Z,40.90
2019-04-11T11:30:33.714Z,40.90
2019-04-11T11:33:02.333Z,41.00
2019-04-11T11:35:42.830Z,40.90
2019-04-11T11:38:13.569Z,40.30
2019-04-11T11:40:52.667Z,39.90
2019-04-11T11:43:23.159Z,39.70
2019-04-11T11:45:55.510Z,39.90
2019-04-11T11:48:36.828Z,40.20
2019-04-11T11:51:13.044Z,39.70
2019-04-11T11:53:43.303Z,39.80
2019-04-11T11:56:13.711Z,39.70
2019-04-11T11:58:52.989Z,39.70
2019-04-11T12:01:18.262Z,39.50
2019-04-11T12:04:04.973Z,39.90
2019-04-11T12:06:34.103Z,39.60
2019-04-11T12:09:18.380Z,39.90
2019-04-11T12:11:50.168Z,40.00
2019-04-11T12:14:27.487Z,40.00
2019-04-11T12:17:03.799Z,36.50
2019-04-11T12:19:47.870Z,32.40
2019-04-11T12:22:08.523Z,34.00
2019-04-11T12:24:38.904Z,35.60
2019-04-11T12:27:18.425Z,34.00
2019-04-11T12:29:50.444Z,34.30
2019-04-11T12:32:22.790Z,35.50
2019-04-11T12:35:02.161Z,35.90
2019-04-11T12:37:37.921Z,36.00
2019-04-11T12:40:24.934Z,36.40
2019-04-11T12:42:53.561Z,36.60
2019-04-11T12:45:34.643Z,36.80
2019-04-11T12:48:06.497Z,37.10
2019-04-11T12:50:51.772Z,37.50
2019-04-11T12:53:20.367Z,36.20
2019-04-11T12:55:52.911Z,35.70
2019-04-11T12:58:28.387Z,33.90
2019-04-11T13:01:01.574Z,33.90
2019-04-11T13:03:40.601Z,34.30
2019-04-11T13:06:19.634Z,34.40
2019-04-11T13:08:49.578Z,34.50
2019-04-11T13:11:22.130Z,34.70
2019-04-11T13:13:52.066Z,35.10
2019-04-11T13:16:21.044Z,35.20
2019-04-11T13:19:06.158Z,35.40
2019-04-11T13:21:37.012Z,35.60
2019-04-11T13:24:10.234Z,36.00
2019-04-11T13:26:56.350Z,36.60
2019-04-11T13:29:26.666Z,36.50
2019-04-11T13:32:13.057Z,36.60
2019-04-11T13:34:43.015Z,36.70
2019-04-11T13:37:29.483Z,36.90
2019-04-11T13:40:05.131Z,37.00
2019-04-11T13:42:51.146Z,37.20
2019-04-11T13:45:19.723Z,37.20
2019-04-11T13:47:52.234Z,37.20
2019-04-11T13:50:20.982Z,37.40
2019-04-11T13:52:54.248Z,37.30
2019-04-11T13:55:22.863Z,37.50
2019-04-11T13:58:01.586Z,37.50
2019-04-11T14:00:46.264Z,37.70
2019-04-11T14:03:31.603Z,37.80
2019-04-11T14:06:01.545Z,37.90
2019-04-11T14:08:31.502Z,37.90
2019-04-11T14:11:02.331Z,37.90
2019-04-11T14:13:34.622Z,38.00
2019-04-11T14:16:04.089Z,38.40
2019-04-11T14:18:34.039Z,38.60
2019-04-11T14:21:18.950Z,38.90
2019-04-11T14:23:52.675Z,39.00
2019-04-11T14:26:22.829Z,39.00
2019-04-11T14:28:52.779Z,39.20
2019-04-11T14:31:39.150Z,39.40
2019-04-11T14:34:25.511Z,39.50
2019-04-11T14:37:10.899Z,39.50
2019-04-11T14:39:50.016Z,39.60
2019-04-11T14:42:26.466Z,39.80
2019-04-11T14:44:56.151Z,39.60
2019-04-11T14:47:26.195Z,39.60
2019-04-11T14:50:01.958Z,39.40
2019-04-11T14:52:31.914Z,39.40
2019-04-11T14:55:00.619Z,39.60
2019-04-11T14:57:33.507Z,39.70
2019-04-11T15:00:03.715Z,39.50
2019-04-11T15:02:50.434Z,39.70
2019-04-11T15:05:35.649Z,39.80
2019-04-11T15:08:04.114Z,39.90
2019-04-11T15:10:52.499Z,40.00
2019-04-11T15:13:22.580Z,39.90
2019-04-11T15:16:10.906Z,40.00
2019-04-11T15:18:40.426Z,39.90
2019-04-11T15:21:19.543Z,39.90
2019-04-11T15:23:49.765Z,39.90
2019-04-11T15:26:36.597Z,39.90
2019-04-11T15:29:07.686Z,40.00
2019-04-11T15:31:39.586Z,40.20
2019-04-11T15:34:18.514Z,40.30
2019-04-11T15:36:57.778Z,40.40
2019-04-11T15:39:44.547Z,40.40
2019-04-11T15:42:16.061Z,40.50
2019-04-11T15:44:55.610Z,40.50
2019-04-11T15:47:24.901Z,40.50
2019-04-11T15:50:11.200Z,40.80
2019-04-11T15:52:41.160Z,40.70
2019-04-11T15:55:27.862Z,40.80
2019-04-11T15:57:56.534Z,40.80
2019-04-11T16:00:26.482Z,40.90
2019-04-11T16:02:56.412Z,41.00
2019-04-11T16:05:38.591Z,40.70
2019-04-11T16:08:11.270Z,40.80
2019-04-11T16:10:57.750Z,40.70
2019-04-11T16:13:31.062Z,40.80
2019-04-11T16:16:07.148Z,40.90
2019-04-11T16:18:52.190Z,40.60
2019-04-11T16:21:25.066Z,40.90
2019-04-11T16:23:56.961Z,40.70
2019-04-11T16:26:27.316Z,40.70
2019-04-11T16:29:13.491Z,40.80
2019-04-11T16:31:41.974Z,40.70
2019-04-11T16:34:16.112Z,40.80
2019-04-11T16:36:46.588Z,41.00
2019-04-11T16:39:33.063Z,41.20
2019-04-11T16:42:03.519Z,43.20
2019-04-11T16:44:49.995Z,45.10
2019-04-11T16:47:20.240Z,44.10
2019-04-11T16:49:48.823Z,46.80
2019-04-11T16:52:17.218Z,45.60
2019-04-11T16:54:45.802Z,45.40
2019-04-11T16:57:14.315Z,46.00
2019-04-11T16:59:42.657Z,46.30
2019-04-11T17:02:11.336Z,46.00
2019-04-11T17:04:39.753Z,45.70
2019-04-11T17:07:26.625Z,45.80
2019-04-11T17:10:01.275Z,45.90
2019-04-11T17:12:29.672Z,45.90
2019-04-11T17:14:58.319Z,45.50
2019-04-11T17:17:30.809Z,45.80
2019-04-11T17:19:56.911Z,45.50
2019-04-11T17:22:28.487Z,45.80
2019-04-11T17:24:57.269Z,45.30
2019-04-11T17:27:25.851Z,45.30
2019-04-11T17:29:55.426Z,44.90
2019-04-11T17:32:25.935Z,44.70
2019-04-11T17:34:54.052Z,44.50
2019-04-11T17:37:22.646Z,44.60
2019-04-11T17:39:51.219Z,44.50
2019-04-11T17:42:19.566Z,44.50
2019-04-11T17:44:47.914Z,44.40
2019-04-11T17:47:16.563Z,44.00
2019-04-11T17:49:45.149Z,44.20
2019-04-11T17:52:13.458Z,44.10
2019-04-11T17:54:41.957Z,44.10
2019-04-11T17:57:10.301Z,44.10
2019-04-11T17:59:38.594Z,44.10
2019-04-11T18:02:10.370Z,44.20
2019-04-11T18:04:38.551Z,44.20
2019-04-11T18:07:06.910Z,44.10
2019-04-11T18:09:35.561Z,44.10
2019-04-11T18:12:03.858Z,44.10
2019-04-11T18:14:32.164Z,44.00
2019-04-11T18:17:03.886Z,44.00
2019-04-11T18:19:30.855Z,44.00
2019-04-11T18:22:07.748Z,44.20
2019-04-11T18:24:29.666Z,43.80
2019-04-11T18:26:57.998Z,44.00
2019-04-11T18:29:26.319Z,44.00
2019-04-11T18:31:57.741Z,44.00
2019-04-11T18:34:26.422Z,44.00
2019-04-11T18:36:54.748Z,43.90
2019-04-11T18:39:23.309Z,43.80
2019-04-11T18:41:51.631Z,43.80
2019-04-11T18:44:20.095Z,43.80
2019-04-11T18:46:50.278Z,43.60
2019-04-11T18:49:19.449Z,43.70
2019-04-11T18:51:50.843Z,43.40
2019-04-11T18:54:19.178Z,43.40
2019-04-11T18:56:47.872Z,43.00
2019-04-11T18:59:16.454Z,44.00
2019-04-11T19:01:45.035Z,43.30
2019-04-11T19:04:13.619Z,43.30
2019-04-11T19:06:43.084Z,43.10
2019-04-11T19:09:14.730Z,43.20
2019-04-11T19:11:43.938Z,43.00
2019-04-11T19:14:16.081Z,43.10
2019-04-11T19:16:45.982Z,43.10
2019-04-11T19:19:18.020Z,43.30
2019-04-11T19:21:44.099Z,43.30
2019-04-11T19:24:13.035Z,43.30
2019-04-11T19:26:41.510Z,43.40
2019-04-11T19:29:09.820Z,43.40
2019-04-11T19:31:38.383Z,43.20
2019-04-11T19:34:08.858Z,43.10
2019-04-11T19:36:36.717Z,43.20
2019-04-11T19:39:07.600Z,43.30
2019-04-11T19:41:36.303Z,43.30
2019-04-11T19:44:04.916Z,43.20
2019-04-11T19:46:33.216Z,43.10
2019-04-11T19:49:01.856Z,43.00
2019-04-11T19:51:30.423Z,43.10
2019-04-11T19:54:03.009Z,43.00
2019-04-11T19:56:30.985Z,43.00
2019-04-11T19:59:00.694Z,43.00
2019-04-11T20:01:29.035Z,42.80
2019-04-11T20:03:57.321Z,42.90
2019-04-11T20:06:25.651Z,43.00
2019-04-11T20:08:54.027Z,43.10
2019-04-11T20:11:22.413Z,43.80
2019-04-11T20:13:50.713Z,43.10
2019-04-11T20:16:19.021Z,43.10
2019-04-11T20:18:51.396Z,43.10
2019-04-11T20:21:18.061Z,43.20
2019-04-11T20:23:48.473Z,43.00
2019-04-11T20:26:19.983Z,43.10
2019-04-11T20:28:48.186Z,42.90
2019-04-11T20:31:16.934Z,43.10
2019-04-11T20:33:45.311Z,43.00
2019-04-11T20:36:13.951Z,43.00
2019-04-11T20:38:44.705Z,43.10
2019-04-11T20:41:12.563Z,43.20
2019-04-11T20:43:43.040Z,43.10
2019-04-11T20:46:11.167Z,43.00
2019-04-11T20:48:39.856Z,43.20
2019-04-11T20:51:08.169Z,43.30
2019-04-11T20:53:37.535Z,43.30
2019-04-11T20:56:09.551Z,43.40
2019-04-11T20:58:39.785Z,43.50
2019-04-11T21:01:07.057Z,43.50
2019-04-11T21:03:35.639Z,43.40
2019-04-11T21:06:03.933Z,43.50
2019-04-11T21:08:33.057Z,43.50
2019-04-11T21:11:04.682Z,43.40
2019-04-11T21:13:32.437Z,43.50
2019-04-11T21:16:00.836Z,43.50
2019-04-11T21:18:29.400Z,43.50
2019-04-11T21:20:57.724Z,43.60
2019-04-11T21:23:29.493Z,43.70
2019-04-11T21:25:58.892Z,43.70
2019-04-11T21:28:27.877Z,44.40
2019-04-11T21:30:59.843Z,43.80
2019-04-11T21:33:26.137Z,43.90
2019-04-11T21:35:54.798Z,43.80
2019-04-11T21:38:23.094Z,43.80
2019-04-11T21:40:51.647Z,43.90
2019-04-11T21:43:19.969Z,44.60
2019-04-11T21:45:48.727Z,44.00
2019-04-11T21:48:17.063Z,44.10
2019-04-11T21:50:45.416Z,44.00
2019-04-11T21:53:14.291Z,44.80
2019-04-11T21:55:47.445Z,44.10
2019-04-11T21:58:14.254Z,44.20
2019-04-11T22:00:43.081Z,44.30
2019-04-11T22:03:11.639Z,44.20
2019-04-11T22:05:40.087Z,44.40
2019-04-11T22:08:08.402Z,44.30
2019-04-11T22:10:40.044Z,44.20
2019-04-11T22:13:09.860Z,44.50
2019-04-11T22:15:37.055Z,44.40
2019-04-11T22:18:05.342Z,44.40
2019-04-11T22:20:33.645Z,44.20
2019-04-11T22:23:01.955Z,44.00
2019-04-11T22:25:30.526Z,43.80
2019-04-11T22:27:58.910Z,43.60
2019-04-11T22:30:27.642Z,43.60
2019-04-11T22:33:03.415Z,43.50
2019-04-11T22:35:32.098Z,43.50
2019-04-11T22:38:00.784Z,43.50
2019-04-11T22:40:31.439Z,43.40
2019-04-11T22:42:59.142Z,43.40
2019-04-11T22:45:27.442Z,43.30
2019-04-11T22:47:55.753Z,43.40
2019-04-11T22:50:24.291Z,43.20
2019-04-11T22:52:52.616Z,43.30
2019-04-11T22:55:20.910Z,43.50
2019-04-11T22:57:49.546Z,43.40
2019-04-11T23:00:17.911Z,43.40
2019-04-11T23:03:04.307Z,43.50
2019-04-11T23:05:32.895Z,43.50
2019-04-11T23:08:02.826Z,43.50
2019-04-11T23:10:31.278Z,43.60
2019-04-11T23:12:59.602Z,43.60
2019-04-11T23:15:28.262Z,43.70
2019-04-11T23:17:56.840Z,43.60
2019-04-11T23:20:25.143Z,43.60
2019-04-11T23:22:53.927Z,43.70
2019-04-11T23:25:22.289Z,43.70
2019-04-11T23:27:50.602Z,43.70
2019-04-11T23:30:19.109Z,43.90
2019-04-11T23:32:50.819Z,43.90
2019-04-11T23:35:17.562Z,44.00
2019-04-11T23:37:52.210Z,43.80
2019-04-11T23:40:23.927Z,43.80
2019-04-11T23:42:52.341Z,43.80
2019-04-11T23:45:22.282Z,43.70
2019-04-11T23:47:53.175Z,43.80
2019-04-11T23:50:24.876Z,43.90
2019-04-11T23:52:50.983Z,43.90
2019-04-11T23:55:19.314Z,44.00
2019-04-11T23:57:47.641Z,44.00
